sensor_id;sensor_type;location;lat;lon;timestamp;P1;durP1;ratioP1;P2;durP2;ratioP2
2406;SDS011;37709;53.480;9.688;2023-06-10T00:02:26;11.60;;;5.20;;
2406;SDS011;37709;53.480;9.688;2023-06-10T00:04:54;8.33;;;4.93;;
2406;SDS011;37709;53.480;9.688;2023-06-10T00:07:24;6.30;;;4.90;;
2406;SDS011;37709;53.480;9.688;2023-06-10T00:09:52;8.00;;;5.90;;
2406;SDS011;37709;53.480;9.688;2023-06-10T00:12:19;8.90;;;5.40;;
2406;SDS011;37709;53.480;9.688;2023-06-10T00:14:47;7.17;;;6.10;;
2406;SDS011;37709;53.480;9.688;2023-06-10T00:17:16;9.50;;;5.43;;
2406;SDS011;37709;53.480;9.688;2023-06-10T00:19:44;11.03;;;5.90;;
2406;SDS011;37709;53.480;9.688;2023-06-10T00:22:14;8.80;;;5.60;;
2406;SDS011;37709;53.480;9.688;2023-06-10T00:24:42;6.63;;;5.57;;
2406;SDS011;37709;53.480;9.688;2023-06-10T00:27:10;8.00;;;5.40;;
2406;SDS011;37709;53.480;9.688;2023-06-10T00:29:37;8.43;;;6.10;;
2406;SDS011;37709;53.480;9.688;2023-06-10T00:32:06;10.77;;;6.10;;
2406;SDS011;37709;53.480;9.688;2023-06-10T00:34:34;11.27;;;6.20;;
2406;SDS011;37709;53.480;9.688;2023-06-10T00:37:02;9.83;;;5.70;;
2406;SDS011;37709;53.480;9.688;2023-06-10T00:39:30;9.60;;;5.77;;
2406;SDS011;37709;53.480;9.688;2023-06-10T00:41:57;9.07;;;5.80;;
2406;SDS011;37709;53.480;9.688;2023-06-10T00:44:26;9.03;;;6.10;;
2406;SDS011;37709;53.480;9.688;2023-06-10T00:46:54;6.60;;;5.20;;
2406;SDS011;37709;53.480;9.688;2023-06-10T00:49:22;6.10;;;4.83;;
2406;SDS011;37709;53.480;9.688;2023-06-10T00:51:51;9.53;;;5.27;;
2406;SDS011;37709;53.480;9.688;2023-06-10T00:54:20;9.77;;;6.30;;
2406;SDS011;37709;53.480;9.688;2023-06-10T00:56:48;6.53;;;5.40;;
2406;SDS011;37709;53.480;9.688;2023-06-10T00:59:16;8.13;;;6.00;;
2406;SDS011;37709;53.480;9.688;2023-06-10T01:01:45;7.70;;;5.63;;
2406;SDS011;37709;53.480;9.688;2023-06-10T01:04:16;8.30;;;5.67;;
2406;SDS011;37709;53.480;9.688;2023-06-10T01:11:48;10.03;;;6.03;;
2406;SDS011;37709;53.480;9.688;2023-06-10T01:14:17;8.20;;;6.00;;
2406;SDS011;37709;53.480;9.688;2023-06-10T01:16:44;8.47;;;5.40;;
2406;SDS011;37709;53.480;9.688;2023-06-10T01:19:12;6.13;;;5.20;;
2406;SDS011;37709;53.480;9.688;2023-06-10T01:21:41;11.50;;;6.30;;
2406;SDS011;37709;53.480;9.688;2023-06-10T01:24:17;9.33;;;5.80;;
2406;SDS011;37709;53.480;9.688;2023-06-10T01:26:47;6.90;;;4.67;;
2406;SDS011;37709;53.480;9.688;2023-06-10T01:29:18;11.90;;;5.23;;
2406;SDS011;37709;53.480;9.688;2023-06-10T01:32:01;6.77;;;4.30;;
2406;SDS011;37709;53.480;9.688;2023-06-10T01:34:31;7.07;;;4.23;;
2406;SDS011;37709;53.480;9.688;2023-06-10T01:37:00;6.17;;;4.30;;
2406;SDS011;37709;53.480;9.688;2023-06-10T01:39:28;6.47;;;4.20;;
2406;SDS011;37709;53.480;9.688;2023-06-10T01:41:56;8.20;;;5.30;;
2406;SDS011;37709;53.480;9.688;2023-06-10T01:44:24;8.70;;;4.80;;
2406;SDS011;37709;53.480;9.688;2023-06-10T01:46:52;9.80;;;4.30;;
2406;SDS011;37709;53.480;9.688;2023-06-10T01:49:21;8.43;;;4.10;;
2406;SDS011;37709;53.480;9.688;2023-06-10T01:51:50;5.87;;;4.63;;
2406;SDS011;37709;53.480;9.688;2023-06-10T01:54:18;7.17;;;4.50;;
2406;SDS011;37709;53.480;9.688;2023-06-10T01:56:46;6.83;;;4.23;;
2406;SDS011;37709;53.480;9.688;2023-06-10T01:59:13;6.20;;;3.30;;
2406;SDS011;37709;53.480;9.688;2023-06-10T02:01:42;6.93;;;4.00;;
2406;SDS011;37709;53.480;9.688;2023-06-10T02:04:10;7.63;;;4.30;;
2406;SDS011;37709;53.480;9.688;2023-06-10T02:06:37;9.90;;;3.93;;
2406;SDS011;37709;53.480;9.688;2023-06-10T02:09:05;6.63;;;4.00;;
2406;SDS011;37709;53.480;9.688;2023-06-10T02:11:33;6.37;;;3.90;;
2406;SDS011;37709;53.480;9.688;2023-06-10T02:14:00;6.80;;;4.00;;
2406;SDS011;37709;53.480;9.688;2023-06-10T02:16:28;7.03;;;5.00;;
2406;SDS011;37709;53.480;9.688;2023-06-10T02:18:56;6.70;;;3.57;;
2406;SDS011;37709;53.480;9.688;2023-06-10T02:21:27;6.37;;;4.00;;
2406;SDS011;37709;53.480;9.688;2023-06-10T02:23:54;8.53;;;4.10;;
2406;SDS011;37709;53.480;9.688;2023-06-10T02:26:22;6.90;;;3.50;;
2406;SDS011;37709;53.480;9.688;2023-06-10T02:28:52;8.23;;;3.93;;
2406;SDS011;37709;53.480;9.688;2023-06-10T02:31:20;8.70;;;3.43;;
2406;SDS011;37709;53.480;9.688;2023-06-10T02:33:48;8.40;;;3.97;;
2406;SDS011;37709;53.480;9.688;2023-06-10T02:36:16;9.33;;;4.40;;
2406;SDS011;37709;53.480;9.688;2023-06-10T02:38:43;6.33;;;3.80;;
2406;SDS011;37709;53.480;9.688;2023-06-10T02:41:11;7.23;;;3.30;;
2406;SDS011;37709;53.480;9.688;2023-06-10T02:43:40;7.60;;;3.70;;
2406;SDS011;37709;53.480;9.688;2023-06-10T02:46:09;4.50;;;3.10;;
2406;SDS011;37709;53.480;9.688;2023-06-10T02:48:41;5.80;;;3.80;;
2406;SDS011;37709;53.480;9.688;2023-06-10T02:51:12;6.17;;;3.80;;
2406;SDS011;37709;53.480;9.688;2023-06-10T02:53:44;6.00;;;3.43;;
2406;SDS011;37709;53.480;9.688;2023-06-10T02:56:13;10.20;;;3.47;;
2406;SDS011;37709;53.480;9.688;2023-06-10T02:58:42;5.37;;;3.33;;
2406;SDS011;37709;53.480;9.688;2023-06-10T03:01:13;6.13;;;3.73;;
2406;SDS011;37709;53.480;9.688;2023-06-10T03:03:48;6.73;;;3.90;;
2406;SDS011;37709;53.480;9.688;2023-06-10T03:06:17;11.77;;;4.30;;
2406;SDS011;37709;53.480;9.688;2023-06-10T03:08:45;7.40;;;3.97;;
2406;SDS011;37709;53.480;9.688;2023-06-10T03:11:16;7.43;;;4.23;;
2406;SDS011;37709;53.480;9.688;2023-06-10T03:13:46;6.23;;;4.40;;
2406;SDS011;37709;53.480;9.688;2023-06-10T03:16:16;5.87;;;3.43;;
2406;SDS011;37709;53.480;9.688;2023-06-10T03:18:45;11.27;;;4.60;;
2406;SDS011;37709;53.480;9.688;2023-06-10T03:21:13;6.83;;;4.10;;
2406;SDS011;37709;53.480;9.688;2023-06-10T03:23:41;8.67;;;4.10;;
2406;SDS011;37709;53.480;9.688;2023-06-10T03:26:10;6.40;;;3.40;;
2406;SDS011;37709;53.480;9.688;2023-06-10T03:28:41;5.77;;;3.60;;
2406;SDS011;37709;53.480;9.688;2023-06-10T03:31:09;10.60;;;3.90;;
2406;SDS011;37709;53.480;9.688;2023-06-10T03:33:37;10.50;;;4.20;;
2406;SDS011;37709;53.480;9.688;2023-06-10T03:36:06;7.47;;;4.77;;
2406;SDS011;37709;53.480;9.688;2023-06-10T03:38:34;6.30;;;3.53;;
2406;SDS011;37709;53.480;9.688;2023-06-10T03:41:04;10.50;;;4.37;;
2406;SDS011;37709;53.480;9.688;2023-06-10T03:43:32;9.47;;;3.63;;
2406;SDS011;37709;53.480;9.688;2023-06-10T03:46:00;6.23;;;3.70;;
2406;SDS011;37709;53.480;9.688;2023-06-10T03:48:28;8.90;;;3.60;;
2406;SDS011;37709;53.480;9.688;2023-06-10T03:50:57;6.83;;;3.80;;
2406;SDS011;37709;53.480;9.688;2023-06-10T03:53:26;6.50;;;2.87;;
2406;SDS011;37709;53.480;9.688;2023-06-10T03:55:53;7.20;;;3.67;;
2406;SDS011;37709;53.480;9.688;2023-06-10T03:58:23;6.57;;;3.17;;
2406;SDS011;37709;53.480;9.688;2023-06-10T04:00:52;7.73;;;2.93;;
2406;SDS011;37709;53.480;9.688;2023-06-10T04:03:28;10.87;;;3.40;;
2406;SDS011;37709;53.480;9.688;2023-06-10T04:05:55;7.97;;;3.70;;
2406;SDS011;37709;53.480;9.688;2023-06-10T04:08:25;4.70;;;3.00;;
2406;SDS011;37709;53.480;9.688;2023-06-10T04:10:53;5.63;;;3.33;;
2406;SDS011;37709;53.480;9.688;2023-06-10T04:13:21;6.90;;;2.60;;
2406;SDS011;37709;53.480;9.688;2023-06-10T04:15:55;7.00;;;2.80;;
2406;SDS011;37709;53.480;9.688;2023-06-10T04:18:22;10.00;;;3.13;;
2406;SDS011;37709;53.480;9.688;2023-06-10T04:20:53;6.30;;;2.90;;
2406;SDS011;37709;53.480;9.688;2023-06-10T04:23:22;9.50;;;3.37;;
2406;SDS011;37709;53.480;9.688;2023-06-10T04:25:50;7.63;;;3.10;;
2406;SDS011;37709;53.480;9.688;2023-06-10T04:28:18;4.30;;;2.87;;
2406;SDS011;37709;53.480;9.688;2023-06-10T04:30:46;9.57;;;2.73;;
2406;SDS011;37709;53.480;9.688;2023-06-10T04:33:14;8.00;;;3.30;;
2406;SDS011;37709;53.480;9.688;2023-06-10T04:35:42;6.53;;;2.90;;
2406;SDS011;37709;53.480;9.688;2023-06-10T04:38:13;5.17;;;2.60;;
2406;SDS011;37709;53.480;9.688;2023-06-10T04:40:41;10.33;;;3.17;;
2406;SDS011;37709;53.480;9.688;2023-06-10T04:43:10;10.70;;;2.93;;
2406;SDS011;37709;53.480;9.688;2023-06-10T04:45:39;4.10;;;2.67;;
2406;SDS011;37709;53.480;9.688;2023-06-10T04:48:11;5.90;;;2.23;;
2406;SDS011;37709;53.480;9.688;2023-06-10T04:50:39;6.70;;;2.47;;
2406;SDS011;37709;53.480;9.688;2023-06-10T04:53:06;2.73;;;2.17;;
2406;SDS011;37709;53.480;9.688;2023-06-10T04:55:37;6.60;;;2.87;;
2406;SDS011;37709;53.480;9.688;2023-06-10T04:58:04;5.90;;;2.50;;
2406;SDS011;37709;53.480;9.688;2023-06-10T05:00:32;5.37;;;2.20;;
2406;SDS011;37709;53.480;9.688;2023-06-10T05:02:59;5.43;;;2.13;;
2406;SDS011;37709;53.480;9.688;2023-06-10T05:05:27;9.17;;;2.90;;
2406;SDS011;37709;53.480;9.688;2023-06-10T05:07:54;6.27;;;2.33;;
2406;SDS011;37709;53.480;9.688;2023-06-10T05:10:22;4.43;;;2.00;;
2406;SDS011;37709;53.480;9.688;2023-06-10T05:12:49;8.60;;;2.43;;
2406;SDS011;37709;53.480;9.688;2023-06-10T05:15:18;5.90;;;2.70;;
2406;SDS011;37709;53.480;9.688;2023-06-10T05:17:46;3.97;;;2.10;;
2406;SDS011;37709;53.480;9.688;2023-06-10T05:20:13;5.03;;;2.00;;
2406;SDS011;37709;53.480;9.688;2023-06-10T05:22:42;4.77;;;1.70;;
2406;SDS011;37709;53.480;9.688;2023-06-10T05:25:09;3.60;;;2.00;;
2406;SDS011;37709;53.480;9.688;2023-06-10T05:27:37;5.07;;;2.13;;
2406;SDS011;37709;53.480;9.688;2023-06-10T05:30:05;9.00;;;3.63;;
2406;SDS011;37709;53.480;9.688;2023-06-10T05:32:34;5.97;;;2.60;;
2406;SDS011;37709;53.480;9.688;2023-06-10T05:35:01;4.17;;;2.50;;
2406;SDS011;37709;53.480;9.688;2023-06-10T05:37:33;5.00;;;2.13;;
2406;SDS011;37709;53.480;9.688;2023-06-10T05:40:01;6.23;;;2.70;;
2406;SDS011;37709;53.480;9.688;2023-06-10T05:42:29;8.83;;;1.97;;
2406;SDS011;37709;53.480;9.688;2023-06-10T05:44:56;4.70;;;1.73;;
2406;SDS011;37709;53.480;9.688;2023-06-10T05:47:24;5.03;;;2.03;;
2406;SDS011;37709;53.480;9.688;2023-06-10T05:49:51;4.73;;;2.30;;
2406;SDS011;37709;53.480;9.688;2023-06-10T05:52:18;3.93;;;2.37;;
2406;SDS011;37709;53.480;9.688;2023-06-10T05:54:46;3.80;;;2.00;;
2406;SDS011;37709;53.480;9.688;2023-06-10T05:57:13;4.87;;;2.00;;
2406;SDS011;37709;53.480;9.688;2023-06-10T05:59:40;3.60;;;2.20;;
2406;SDS011;37709;53.480;9.688;2023-06-10T06:02:08;4.53;;;2.80;;
2406;SDS011;37709;53.480;9.688;2023-06-10T06:04:35;6.10;;;2.60;;
2406;SDS011;37709;53.480;9.688;2023-06-10T06:07:03;3.40;;;1.90;;
2406;SDS011;37709;53.480;9.688;2023-06-10T06:09:31;8.40;;;2.60;;
2406;SDS011;37709;53.480;9.688;2023-06-10T06:11:58;4.73;;;1.83;;
2406;SDS011;37709;53.480;9.688;2023-06-10T06:14:26;3.90;;;2.23;;
2406;SDS011;37709;53.480;9.688;2023-06-10T06:16:53;4.77;;;2.00;;
2406;SDS011;37709;53.480;9.688;2023-06-10T06:19:20;4.20;;;1.93;;
2406;SDS011;37709;53.480;9.688;2023-06-10T06:21:47;5.13;;;2.53;;
2406;SDS011;37709;53.480;9.688;2023-06-10T06:24:15;5.97;;;2.80;;
2406;SDS011;37709;53.480;9.688;2023-06-10T06:26:43;7.00;;;1.90;;
2406;SDS011;37709;53.480;9.688;2023-06-10T06:29:11;7.60;;;2.00;;
2406;SDS011;37709;53.480;9.688;2023-06-10T06:31:38;3.60;;;2.33;;
2406;SDS011;37709;53.480;9.688;2023-06-10T06:34:06;5.93;;;2.03;;
2406;SDS011;37709;53.480;9.688;2023-06-10T06:36:34;6.40;;;2.97;;
2406;SDS011;37709;53.480;9.688;2023-06-10T06:39:01;5.13;;;2.37;;
2406;SDS011;37709;53.480;9.688;2023-06-10T06:41:29;3.10;;;2.10;;
2406;SDS011;37709;53.480;9.688;2023-06-10T06:43:57;4.97;;;2.17;;
2406;SDS011;37709;53.480;9.688;2023-06-10T06:46:29;7.97;;;3.07;;
2406;SDS011;37709;53.480;9.688;2023-06-10T06:48:57;4.00;;;2.17;;
2406;SDS011;37709;53.480;9.688;2023-06-10T06:51:25;4.33;;;1.93;;
2406;SDS011;37709;53.480;9.688;2023-06-10T06:53:52;4.50;;;2.80;;
2406;SDS011;37709;53.480;9.688;2023-06-10T06:56:23;6.57;;;2.40;;
2406;SDS011;37709;53.480;9.688;2023-06-10T06:58:51;4.57;;;2.53;;
2406;SDS011;37709;53.480;9.688;2023-06-10T07:01:18;4.20;;;1.90;;
2406;SDS011;37709;53.480;9.688;2023-06-10T07:03:46;5.43;;;2.10;;
2406;SDS011;37709;53.480;9.688;2023-06-10T07:06:14;5.87;;;2.30;;
2406;SDS011;37709;53.480;9.688;2023-06-10T07:08:42;5.13;;;2.53;;
2406;SDS011;37709;53.480;9.688;2023-06-10T07:11:09;3.27;;;2.13;;
2406;SDS011;37709;53.480;9.688;2023-06-10T07:13:37;3.37;;;2.10;;
2406;SDS011;37709;53.480;9.688;2023-06-10T07:16:05;5.00;;;2.80;;
2406;SDS011;37709;53.480;9.688;2023-06-10T07:18:32;5.50;;;3.10;;
2406;SDS011;37709;53.480;9.688;2023-06-10T07:21:00;3.87;;;2.50;;
2406;SDS011;37709;53.480;9.688;2023-06-10T07:23:28;5.30;;;3.03;;
2406;SDS011;37709;53.480;9.688;2023-06-10T07:25:56;3.80;;;2.00;;
2406;SDS011;37709;53.480;9.688;2023-06-10T07:28:23;4.73;;;2.27;;
2406;SDS011;37709;53.480;9.688;2023-06-10T07:30:51;5.20;;;2.30;;
2406;SDS011;37709;53.480;9.688;2023-06-10T07:33:19;3.33;;;2.10;;
2406;SDS011;37709;53.480;9.688;2023-06-10T07:35:46;4.83;;;2.40;;
2406;SDS011;37709;53.480;9.688;2023-06-10T07:38:14;5.13;;;2.43;;
2406;SDS011;37709;53.480;9.688;2023-06-10T07:40:41;5.00;;;2.40;;
2406;SDS011;37709;53.480;9.688;2023-06-10T07:43:09;3.47;;;1.97;;
2406;SDS011;37709;53.480;9.688;2023-06-10T07:45:37;4.80;;;3.03;;
2406;SDS011;37709;53.480;9.688;2023-06-10T07:48:06;3.60;;;2.30;;
2406;SDS011;37709;53.480;9.688;2023-06-10T07:50:34;4.67;;;2.63;;
2406;SDS011;37709;53.480;9.688;2023-06-10T07:53:02;4.90;;;2.77;;
2406;SDS011;37709;53.480;9.688;2023-06-10T07:55:31;5.23;;;2.40;;
2406;SDS011;37709;53.480;9.688;2023-06-10T07:57:58;4.50;;;2.07;;
2406;SDS011;37709;53.480;9.688;2023-06-10T08:00:26;4.07;;;2.70;;
2406;SDS011;37709;53.480;9.688;2023-06-10T08:02:54;6.03;;;2.07;;
2406;SDS011;37709;53.480;9.688;2023-06-10T08:05:22;4.53;;;2.57;;
2406;SDS011;37709;53.480;9.688;2023-06-10T08:07:50;6.30;;;3.47;;
2406;SDS011;37709;53.480;9.688;2023-06-10T08:10:18;5.60;;;2.90;;
2406;SDS011;37709;53.480;9.688;2023-06-10T08:12:45;5.53;;;2.47;;
2406;SDS011;37709;53.480;9.688;2023-06-10T08:15:13;2.70;;;2.10;;
2406;SDS011;37709;53.480;9.688;2023-06-10T08:17:41;5.53;;;2.00;;
2406;SDS011;37709;53.480;9.688;2023-06-10T08:20:09;6.53;;;2.40;;
2406;SDS011;37709;53.480;9.688;2023-06-10T08:22:37;4.30;;;2.20;;
2406;SDS011;37709;53.480;9.688;2023-06-10T08:25:05;3.87;;;2.20;;
2406;SDS011;37709;53.480;9.688;2023-06-10T08:27:33;4.43;;;2.50;;
2406;SDS011;37709;53.480;9.688;2023-06-10T08:30:01;2.70;;;1.90;;
2406;SDS011;37709;53.480;9.688;2023-06-10T08:32:30;3.43;;;2.13;;
2406;SDS011;37709;53.480;9.688;2023-06-10T08:34:57;4.53;;;2.93;;
2406;SDS011;37709;53.480;9.688;2023-06-10T08:37:25;3.90;;;2.30;;
2406;SDS011;37709;53.480;9.688;2023-06-10T08:39:53;3.80;;;1.97;;
2406;SDS011;37709;53.480;9.688;2023-06-10T08:44:54;5.90;;;2.03;;
2406;SDS011;37709;53.480;9.688;2023-06-10T08:47:23;4.17;;;1.97;;
2406;SDS011;37709;53.480;9.688;2023-06-10T08:49:51;3.50;;;2.13;;
2406;SDS011;37709;53.480;9.688;2023-06-10T08:52:20;5.50;;;2.63;;
2406;SDS011;37709;53.480;9.688;2023-06-10T08:54:49;4.30;;;2.37;;
2406;SDS011;37709;53.480;9.688;2023-06-10T08:57:17;5.47;;;2.80;;
2406;SDS011;37709;53.480;9.688;2023-06-10T08:59:48;3.77;;;2.40;;
2406;SDS011;37709;53.480;9.688;2023-06-10T09:02:15;3.80;;;2.00;;
2406;SDS011;37709;53.480;9.688;2023-06-10T09:04:47;7.57;;;2.80;;
2406;SDS011;37709;53.480;9.688;2023-06-10T09:07:15;4.17;;;2.30;;
2406;SDS011;37709;53.480;9.688;2023-06-10T09:09:44;4.50;;;2.53;;
2406;SDS011;37709;53.480;9.688;2023-06-10T09:12:13;3.77;;;2.20;;
2406;SDS011;37709;53.480;9.688;2023-06-10T09:14:41;3.33;;;2.10;;
2406;SDS011;37709;53.480;9.688;2023-06-10T09:17:09;2.83;;;2.33;;
2406;SDS011;37709;53.480;9.688;2023-06-10T09:19:38;3.70;;;2.23;;
2406;SDS011;37709;53.480;9.688;2023-06-10T09:22:06;5.33;;;2.70;;
2406;SDS011;37709;53.480;9.688;2023-06-10T09:24:33;4.13;;;2.80;;
2406;SDS011;37709;53.480;9.688;2023-06-10T09:27:02;4.30;;;2.13;;
2406;SDS011;37709;53.480;9.688;2023-06-10T09:29:30;5.73;;;2.73;;
2406;SDS011;37709;53.480;9.688;2023-06-10T09:31:58;3.70;;;2.63;;
2406;SDS011;37709;53.480;9.688;2023-06-10T09:34:25;4.80;;;2.83;;
2406;SDS011;37709;53.480;9.688;2023-06-10T09:36:53;7.07;;;2.63;;
2406;SDS011;37709;53.480;9.688;2023-06-10T09:39:22;3.27;;;2.63;;
2406;SDS011;37709;53.480;9.688;2023-06-10T09:41:49;4.27;;;2.43;;
2406;SDS011;37709;53.480;9.688;2023-06-10T09:44:18;4.77;;;3.00;;
2406;SDS011;37709;53.480;9.688;2023-06-10T09:46:48;3.97;;;2.50;;
2406;SDS011;37709;53.480;9.688;2023-06-10T09:49:17;2.23;;;1.87;;
2406;SDS011;37709;53.480;9.688;2023-06-10T09:51:51;5.60;;;2.90;;
2406;SDS011;37709;53.480;9.688;2023-06-10T09:54:20;3.70;;;2.83;;
2406;SDS011;37709;53.480;9.688;2023-06-10T09:56:48;6.23;;;2.80;;
2406;SDS011;37709;53.480;9.688;2023-06-10T09:59:27;5.03;;;2.90;;
2406;SDS011;37709;53.480;9.688;2023-06-10T10:01:55;4.50;;;2.43;;
2406;SDS011;37709;53.480;9.688;2023-06-10T10:04:23;4.80;;;2.43;;
2406;SDS011;37709;53.480;9.688;2023-06-10T10:06:52;6.00;;;2.60;;
2406;SDS011;37709;53.480;9.688;2023-06-10T10:09:20;3.17;;;2.40;;
2406;SDS011;37709;53.480;9.688;2023-06-10T10:11:47;6.70;;;3.13;;
2406;SDS011;37709;53.480;9.688;2023-06-10T10:14:15;4.60;;;2.43;;
2406;SDS011;37709;53.480;9.688;2023-06-10T10:16:44;3.07;;;2.60;;
2406;SDS011;37709;53.480;9.688;2023-06-10T10:19:15;4.97;;;3.27;;
2406;SDS011;37709;53.480;9.688;2023-06-10T10:21:50;3.63;;;2.20;;
2406;SDS011;37709;53.480;9.688;2023-06-10T10:24:21;4.87;;;2.70;;
2406;SDS011;37709;53.480;9.688;2023-06-10T10:26:49;3.80;;;2.70;;
2406;SDS011;37709;53.480;9.688;2023-06-10T10:29:20;5.60;;;2.73;;
2406;SDS011;37709;53.480;9.688;2023-06-10T10:31:50;3.40;;;2.70;;
2406;SDS011;37709;53.480;9.688;2023-06-10T10:34:24;3.87;;;2.30;;
2406;SDS011;37709;53.480;9.688;2023-06-10T10:36:52;3.00;;;2.70;;
2406;SDS011;37709;53.480;9.688;2023-06-10T10:39:20;5.10;;;3.10;;
2406;SDS011;37709;53.480;9.688;2023-06-10T10:41:48;3.43;;;2.60;;
2406;SDS011;37709;53.480;9.688;2023-06-10T10:44:16;3.57;;;2.80;;
2406;SDS011;37709;53.480;9.688;2023-06-10T10:46:48;4.40;;;3.10;;
2406;SDS011;37709;53.480;9.688;2023-06-10T10:49:19;4.00;;;2.90;;
2406;SDS011;37709;53.480;9.688;2023-06-10T10:51:54;3.47;;;2.33;;
2406;SDS011;37709;53.480;9.688;2023-06-10T10:54:36;5.73;;;5.10;;
2406;SDS011;37709;53.480;9.688;2023-06-10T10:57:09;11.60;;;10.50;;
2406;SDS011;37709;53.480;9.688;2023-06-10T11:02:19;9.45;;;6.97;;
2406;SDS011;37709;53.480;9.688;2023-06-10T11:04:59;4.10;;;2.95;;
2406;SDS011;37709;53.480;9.688;2023-06-10T11:07:31;4.05;;;3.10;;
2406;SDS011;37709;53.480;9.688;2023-06-10T11:10:00;4.78;;;3.35;;
2406;SDS011;37709;53.480;9.688;2023-06-10T11:15:07;4.23;;;2.93;;
2406;SDS011;37709;53.480;9.688;2023-06-10T11:17:35;7.10;;;3.27;;
2406;SDS011;37709;53.480;9.688;2023-06-10T11:20:03;5.03;;;2.97;;
2406;SDS011;37709;53.480;9.688;2023-06-10T11:22:32;5.33;;;3.40;;
2406;SDS011;37709;53.480;9.688;2023-06-10T11:24:59;3.47;;;2.70;;
2406;SDS011;37709;53.480;9.688;2023-06-10T11:27:27;3.53;;;2.30;;
2406;SDS011;37709;53.480;9.688;2023-06-10T11:32:34;4.95;;;3.05;;
2406;SDS011;37709;53.480;9.688;2023-06-10T11:35:02;3.13;;;2.78;;
2406;SDS011;37709;53.480;9.688;2023-06-10T11:37:31;3.15;;;2.60;;
2406;SDS011;37709;53.480;9.688;2023-06-10T11:39:58;3.95;;;2.83;;
2406;SDS011;37709;53.480;9.688;2023-06-10T11:42:26;5.82;;;2.70;;
2406;SDS011;37709;53.480;9.688;2023-06-10T11:44:54;5.93;;;3.85;;
2406;SDS011;37709;53.480;9.688;2023-06-10T11:47:21;6.03;;;2.78;;
2406;SDS011;37709;53.480;9.688;2023-06-10T11:49:55;5.82;;;2.90;;
2406;SDS011;37709;53.480;9.688;2023-06-10T11:52:27;4.47;;;3.15;;
2406;SDS011;37709;53.480;9.688;2023-06-10T11:54:54;3.70;;;3.35;;
2406;SDS011;37709;53.480;9.688;2023-06-10T11:57:22;4.15;;;3.30;;
2406;SDS011;37709;53.480;9.688;2023-06-10T11:59:50;3.70;;;3.35;;
2406;SDS011;37709;53.480;9.688;2023-06-10T12:02:18;3.90;;;2.58;;
2406;SDS011;37709;53.480;9.688;2023-06-10T12:04:46;5.15;;;3.33;;
2406;SDS011;37709;53.480;9.688;2023-06-10T12:07:17;3.40;;;2.75;;
2406;SDS011;37709;53.480;9.688;2023-06-10T12:09:46;3.60;;;3.10;;
2406;SDS011;37709;53.480;9.688;2023-06-10T12:12:14;5.05;;;3.80;;
2406;SDS011;37709;53.480;9.688;2023-06-10T12:14:55;6.20;;;2.70;;
2406;SDS011;37709;53.480;9.688;2023-06-10T12:17:35;3.53;;;2.83;;
2406;SDS011;37709;53.480;9.688;2023-06-10T12:20:08;6.10;;;4.00;;
2406;SDS011;37709;53.480;9.688;2023-06-10T12:22:39;4.00;;;3.27;;
2406;SDS011;37709;53.480;9.688;2023-06-10T12:25:07;3.27;;;3.00;;
2406;SDS011;37709;53.480;9.688;2023-06-10T12:27:37;4.80;;;3.57;;
2406;SDS011;37709;53.480;9.688;2023-06-10T12:30:05;4.20;;;3.43;;
2406;SDS011;37709;53.480;9.688;2023-06-10T12:32:41;3.53;;;3.23;;
2406;SDS011;37709;53.480;9.688;2023-06-10T12:35:10;5.67;;;5.17;;
2406;SDS011;37709;53.480;9.688;2023-06-10T12:37:40;7.10;;;3.57;;
2406;SDS011;37709;53.480;9.688;2023-06-10T12:40:10;4.00;;;3.20;;
2406;SDS011;37709;53.480;9.688;2023-06-10T12:42:38;4.00;;;3.60;;
2406;SDS011;37709;53.480;9.688;2023-06-10T12:45:06;5.88;;;3.90;;
2406;SDS011;37709;53.480;9.688;2023-06-10T12:47:37;6.20;;;4.33;;
2406;SDS011;37709;53.480;9.688;2023-06-10T12:50:06;4.90;;;4.40;;
2406;SDS011;37709;53.480;9.688;2023-06-10T12:52:34;5.13;;;3.95;;
2406;SDS011;37709;53.480;9.688;2023-06-10T12:55:01;6.90;;;5.38;;
2406;SDS011;37709;53.480;9.688;2023-06-10T12:57:30;4.40;;;3.92;;
2406;SDS011;37709;53.480;9.688;2023-06-10T12:59:58;5.25;;;3.97;;
2406;SDS011;37709;53.480;9.688;2023-06-10T13:02:32;5.73;;;3.50;;
2406;SDS011;37709;53.480;9.688;2023-06-10T13:05:01;3.43;;;3.13;;
2406;SDS011;37709;53.480;9.688;2023-06-10T13:07:29;3.90;;;3.60;;
2406;SDS011;37709;53.480;9.688;2023-06-10T13:09:57;4.50;;;3.40;;
2406;SDS011;37709;53.480;9.688;2023-06-10T13:12:25;4.35;;;3.90;;
2406;SDS011;37709;53.480;9.688;2023-06-10T13:15:13;4.87;;;4.37;;
2406;SDS011;37709;53.480;9.688;2023-06-10T13:17:42;4.32;;;3.92;;
2406;SDS011;37709;53.480;9.688;2023-06-10T13:20:10;6.00;;;3.90;;
2406;SDS011;37709;53.480;9.688;2023-06-10T13:22:38;5.47;;;3.88;;
2406;SDS011;37709;53.480;9.688;2023-06-10T13:25:05;4.80;;;4.30;;
2406;SDS011;37709;53.480;9.688;2023-06-10T13:27:35;4.83;;;3.60;;
2406;SDS011;37709;53.480;9.688;2023-06-10T13:30:07;4.10;;;3.70;;
2406;SDS011;37709;53.480;9.688;2023-06-10T13:32:36;3.97;;;3.57;;
2406;SDS011;37709;53.480;9.688;2023-06-10T13:35:04;4.37;;;4.00;;
2406;SDS011;37709;53.480;9.688;2023-06-10T13:37:32;8.00;;;3.80;;
2406;SDS011;37709;53.480;9.688;2023-06-10T13:40:01;4.43;;;3.53;;
2406;SDS011;37709;53.480;9.688;2023-06-10T13:42:29;3.60;;;3.30;;
2406;SDS011;37709;53.480;9.688;2023-06-10T13:44:57;4.40;;;3.10;;
2406;SDS011;37709;53.480;9.688;2023-06-10T13:47:25;4.37;;;3.77;;
2406;SDS011;37709;53.480;9.688;2023-06-10T13:49:53;4.03;;;3.63;;
2406;SDS011;37709;53.480;9.688;2023-06-10T13:52:21;4.67;;;3.93;;
2406;SDS011;37709;53.480;9.688;2023-06-10T13:54:48;7.90;;;4.17;;
2406;SDS011;37709;53.480;9.688;2023-06-10T13:57:16;4.10;;;3.60;;
2406;SDS011;37709;53.480;9.688;2023-06-10T13:59:44;3.93;;;3.50;;
2406;SDS011;37709;53.480;9.688;2023-06-10T14:02:11;6.43;;;3.53;;
2406;SDS011;37709;53.480;9.688;2023-06-10T14:04:39;6.63;;;3.47;;
2406;SDS011;37709;53.480;9.688;2023-06-10T14:07:07;3.50;;;3.20;;
2406;SDS011;37709;53.480;9.688;2023-06-10T14:09:35;4.30;;;3.87;;
2406;SDS011;37709;53.480;9.688;2023-06-10T14:12:03;4.00;;;3.70;;
2406;SDS011;37709;53.480;9.688;2023-06-10T14:14:32;5.37;;;3.33;;
2406;SDS011;37709;53.480;9.688;2023-06-10T14:16:59;4.40;;;3.90;;
2406;SDS011;37709;53.480;9.688;2023-06-10T14:19:28;3.97;;;3.43;;
2406;SDS011;37709;53.480;9.688;2023-06-10T14:21:56;5.40;;;3.63;;
2406;SDS011;37709;53.480;9.688;2023-06-10T14:24:24;4.10;;;3.60;;
2406;SDS011;37709;53.480;9.688;2023-06-10T14:26:52;5.80;;;3.70;;
2406;SDS011;37709;53.480;9.688;2023-06-10T14:29:19;4.63;;;3.60;;
2406;SDS011;37709;53.480;9.688;2023-06-10T14:31:47;5.13;;;3.77;;
2406;SDS011;37709;53.480;9.688;2023-06-10T14:34:15;5.33;;;4.17;;
2406;SDS011;37709;53.480;9.688;2023-06-10T14:36:43;4.97;;;3.87;;
2406;SDS011;37709;53.480;9.688;2023-06-10T14:39:10;6.30;;;4.10;;
2406;SDS011;37709;53.480;9.688;2023-06-10T14:41:38;5.00;;;3.67;;
2406;SDS011;37709;53.480;9.688;2023-06-10T14:44:05;4.20;;;3.87;;
2406;SDS011;37709;53.480;9.688;2023-06-10T14:46:33;4.23;;;3.80;;
2406;SDS011;37709;53.480;9.688;2023-06-10T14:49:01;4.17;;;3.77;;
2406;SDS011;37709;53.480;9.688;2023-06-10T14:51:29;3.73;;;3.40;;
2406;SDS011;37709;53.480;9.688;2023-06-10T14:54:00;5.30;;;3.80;;
2406;SDS011;37709;53.480;9.688;2023-06-10T14:56:28;4.47;;;4.07;;
2406;SDS011;37709;53.480;9.688;2023-06-10T14:58:56;5.47;;;3.53;;
2406;SDS011;37709;53.480;9.688;2023-06-10T15:01:24;4.63;;;3.23;;
2406;SDS011;37709;53.480;9.688;2023-06-10T15:03:52;5.10;;;3.77;;
2406;SDS011;37709;53.480;9.688;2023-06-10T15:06:19;3.97;;;3.23;;
2406;SDS011;37709;53.480;9.688;2023-06-10T15:08:47;5.50;;;3.47;;
2406;SDS011;37709;53.480;9.688;2023-06-10T15:11:18;4.43;;;3.00;;
2406;SDS011;37709;53.480;9.688;2023-06-10T15:13:47;4.60;;;3.70;;
2406;SDS011;37709;53.480;9.688;2023-06-10T15:16:15;5.00;;;2.80;;
2406;SDS011;37709;53.480;9.688;2023-06-10T15:18:43;13.80;;;11.40;;
2406;SDS011;37709;53.480;9.688;2023-06-10T15:21:12;7.37;;;3.80;;
2406;SDS011;37709;53.480;9.688;2023-06-10T15:23:40;6.03;;;5.43;;
2406;SDS011;37709;53.480;9.688;2023-06-10T15:26:08;7.57;;;6.93;;